Aérodrome :
LOGIN :

S'inscrire | Disclaimer

   EN    FR    IT 

 










Légende :    VFR   VFR Marginal   IFR   IFR Intensif   IFR Très Intensif
Visi : 
Plafond : 
>= 8 km
>= 3000ft
5 à 8 km
1000 à 3000 ft
1500m à 5 km
500 à 1000 ft
800 à 1500m
200 à 500 ft
< 800m
< 200 ft
Symboles :   Orages  Brouillard  Fortes neiges  Fortes précipitations  Vent > 20 kt
SIGMETs :   Divers  Orages  Givrage  Turbulence  Onde Orograph.  Cendres Volcan.






- Altitude de l'aérodrome : 468 ft
- Code IATA : GRO


LEGE - Girona Costa Brava

DERNIER METAR :
  • 220300Z 35006KT 9999 SCT025 07/06 Q1016

METARs EXPIRÉS :
  • 220230Z 36003KT 330V050 7000 FEW025 07/06 Q1016
  • 220200Z 34004KT 7000 NSC 07/06 Q1016
  • 220130Z 34003KT 4000 BR NSC 07/07 Q1016
  • 220100Z 00000KT 3000 BR NSC 06/05 Q1016
  • 220030Z 00000KT 3000 R02/0600N BR NSC 06/05 Q1017

TAF TAF LEGE
Valide du 22 à 00h jusqu'au 23 à 00h UTC


212300Z 2200/2224 VRB04KT 9999 BKN020 TX18/2213Z TN09/2206Z
PROB40
TEMPO 2200/2206 3000 BR BKN014
PROB30
TEMPO 2206/2215 RA BKN010
PROB40
TEMPO 2212/2218 04010KT



MET'MAP, la Météo Aéronautique d'un coup d'oeil ! - Copyright ORBIFLY Décembre 2007 - Disclaimer

ORBIFLY MET'MAP TEAM :

Programmation & Développement : Alexandra Zaïnal
Sur une idée originale de : Baudouin d'Aumeries
Assistance à la programmation : Marc-Olivier Méhu
Soutien technique & logistique : Manuel Goepfert

Contact : metmap@orbifly.com




SOURCES & CREDITS :

   NOAA